createdAt,value
2023-04-06T00:00:52.943Z,85
2023-04-06T00:01:59.540Z,85
2023-04-06T00:03:06.995Z,86
2023-04-06T00:04:15.744Z,85
2023-04-06T00:05:20.866Z,86
2023-04-06T00:06:27.591Z,86
2023-04-06T00:07:35.087Z,86
2023-04-06T00:08:41.751Z,86
2023-04-06T00:09:48.820Z,86
2023-04-06T00:10:55.916Z,86
2023-04-06T00:12:02.639Z,86
2023-04-06T00:13:10.167Z,86
2023-04-06T00:14:17.994Z,86
2023-04-06T00:15:23.917Z,86
2023-04-06T00:16:31.085Z,86
2023-04-06T00:17:44.838Z,86
2023-04-06T00:18:44.589Z,86
2023-04-06T00:19:51.765Z,86
2023-04-06T00:20:58.845Z,86
2023-04-06T00:22:06.864Z,86
2023-04-06T00:24:19.657Z,86
2023-04-06T00:25:33.032Z,86
2023-04-06T00:26:34.957Z,86
2023-04-06T00:27:40.460Z,86
2023-04-06T00:28:47.457Z,86
2023-04-06T00:29:54.727Z,86
2023-04-06T00:31:01.724Z,86
2023-04-06T00:32:08.892Z,86
2023-04-06T00:33:16.046Z,86
2023-04-06T00:34:22.561Z,87
2023-04-06T00:35:29.870Z,87
2023-04-06T00:36:36.833Z,87
2023-04-06T00:37:43.878Z,87
2023-04-06T00:38:50.448Z,87
2023-04-06T00:39:57.669Z,87
2023-04-06T00:41:04.640Z,87
2023-04-06T00:42:11.789Z,87
2023-04-06T00:43:18.895Z,87
2023-04-06T00:44:26.194Z,87
2023-04-06T00:45:33.023Z,87
2023-04-06T00:46:39.712Z,87
2023-04-06T00:47:46.881Z,87
2023-04-06T00:48:54.015Z,87
2023-04-06T00:50:00.549Z,87
2023-04-06T00:51:09.661Z,87
2023-04-06T00:52:14.892Z,87
2023-04-06T00:53:21.772Z,87
2023-04-06T00:54:28.812Z,87
2023-04-06T00:55:36.011Z,87
2023-04-06T00:56:42.727Z,88
2023-04-06T00:58:57.038Z,88
2023-04-06T01:00:04.064Z,88
2023-04-06T01:01:10.527Z,88
2023-04-06T01:02:17.524Z,88
2023-04-06T01:03:24.791Z,88
2023-04-06T01:04:31.925Z,88
2023-04-06T01:05:38.872Z,88
2023-04-06T01:06:46.136Z,88
2023-04-06T01:07:52.559Z,88
2023-04-06T01:08:59.680Z,88
2023-04-06T01:10:06.774Z,88
2023-04-06T01:11:14.007Z,88
2023-04-06T01:12:20.439Z,88
2023-04-06T01:13:27.909Z,88
2023-04-06T01:14:34.668Z,88
2023-04-06T01:15:41.934Z,88
2023-04-06T01:16:49.475Z,88
2023-04-06T01:17:56.003Z,88
2023-04-06T01:19:02.674Z,88
2023-04-06T01:20:09.800Z,88
2023-04-06T01:21:17.003Z,88
2023-04-06T01:22:24.044Z,88
2023-04-06T01:23:30.571Z,88
2023-04-06T01:25:44.845Z,88
2023-04-06T01:26:51.799Z,88
2023-04-06T01:27:58.858Z,88
2023-04-06T01:29:05.904Z,88
2023-04-06T01:30:12.723Z,88
2023-04-06T01:31:19.816Z,88
2023-04-06T01:32:26.911Z,88
2023-04-06T01:33:33.940Z,88
2023-04-06T01:34:40.622Z,88
2023-04-06T01:35:47.628Z,88
2023-04-06T01:36:54.695Z,88
2023-04-06T01:38:01.824Z,88
2023-04-06T01:39:09.176Z,88
2023-04-06T01:40:15.492Z,88
2023-04-06T01:41:22.737Z,88
2023-04-06T01:42:29.795Z,88
2023-04-06T01:43:37.031Z,89
2023-04-06T01:44:44.098Z,88
2023-04-06T01:45:50.589Z,89
2023-04-06T01:46:57.757Z,89
2023-04-06T01:48:04.987Z,89
2023-04-06T01:49:11.918Z,89
2023-04-06T01:50:19.069Z,89
2023-04-06T01:51:25.528Z,89
2023-04-06T01:52:32.621Z,89
2023-04-06T01:53:39.690Z,89
2023-04-06T01:54:46.923Z,89
2023-04-06T01:55:54.061Z,89
2023-04-06T01:57:00.542Z,89
2023-04-06T01:58:07.718Z,89
2023-04-06T01:59:14.928Z,89
2023-04-06T02:00:21.821Z,89
2023-04-06T02:02:35.745Z,89
2023-04-06T02:03:42.629Z,89
2023-04-06T02:04:52.260Z,89
2023-04-06T02:05:56.805Z,89
2023-04-06T02:07:03.941Z,89
2023-04-06T02:08:10.643Z,89
2023-04-06T02:09:17.646Z,89
2023-04-06T02:10:24.736Z,90
2023-04-06T02:11:31.962Z,89
2023-04-06T02:12:38.393Z,89
2023-04-06T02:13:45.729Z,89
2023-04-06T02:14:52.779Z,90
2023-04-06T02:15:59.876Z,90
2023-04-06T02:17:06.929Z,90
2023-04-06T02:18:14.384Z,90
2023-04-06T02:19:20.675Z,90
2023-04-06T02:20:28.290Z,90
2023-04-06T02:21:34.904Z,90
2023-04-06T02:22:41.868Z,90
2023-04-06T02:23:48.571Z,91
2023-04-06T02:24:55.685Z,90
2023-04-06T02:26:02.844Z,90
2023-04-06T02:27:09.738Z,91
2023-04-06T02:28:16.869Z,91
2023-04-06T02:29:23.972Z,90
2023-04-06T02:30:30.668Z,91
2023-04-06T02:31:37.699Z,91
2023-04-06T02:32:45.005Z,91
2023-04-06T02:33:51.871Z,91
2023-04-06T02:34:58.427Z,91
2023-04-06T02:36:05.609Z,91
2023-04-06T02:37:12.665Z,91
2023-04-06T02:38:19.792Z,91
2023-04-06T02:39:26.887Z,91
2023-04-06T02:40:33.983Z,91
2023-04-06T02:41:41.010Z,91
2023-04-06T02:42:47.648Z,91
2023-04-06T02:43:55.096Z,92
2023-04-06T02:45:01.912Z,92
2023-04-06T02:46:08.586Z,92
2023-04-06T02:47:15.833Z,92
2023-04-06T02:48:22.811Z,92
2023-04-06T02:49:29.886Z,92
2023-04-06T02:50:36.892Z,92
2023-04-06T02:51:43.980Z,92
2023-04-06T02:53:57.793Z,92
2023-04-06T02:55:05.042Z,92
2023-04-06T02:56:12.154Z,92
2023-04-06T02:57:18.551Z,92
2023-04-06T02:58:25.678Z,92
2023-04-06T02:59:32.798Z,92
2023-04-06T03:00:39.954Z,92
2023-04-06T03:01:46.986Z,92
2023-04-06T03:02:53.548Z,92
2023-04-06T03:04:00.607Z,92
2023-04-06T03:06:14.836Z,92
2023-04-06T03:07:22.060Z,92
2023-04-06T03:08:28.617Z,92
2023-04-06T03:09:35.865Z,92
2023-04-06T03:10:42.938Z,92
2023-04-06T03:11:49.991Z,92
2023-04-06T03:12:56.514Z,92
2023-04-06T03:14:03.521Z,92
2023-04-06T03:15:10.592Z,92
2023-04-06T03:16:17.754Z,92
2023-04-06T03:17:25.006Z,92
2023-04-06T03:18:31.976Z,92
2023-04-06T03:19:38.658Z,92
2023-04-06T03:20:45.701Z,92
2023-04-06T03:21:52.745Z,92
2023-04-06T03:22:59.821Z,92
2023-04-06T03:24:07.068Z,92
2023-04-06T03:25:13.669Z,92
2023-04-06T03:26:20.773Z,92
2023-04-06T03:27:27.698Z,92
2023-04-06T03:28:35.131Z,92
2023-04-06T03:29:42.030Z,92
2023-04-06T03:30:48.820Z,92
2023-04-06T03:31:55.810Z,92
2023-04-06T03:33:02.801Z,92
2023-04-06T03:34:09.821Z,92
2023-04-06T03:35:16.774Z,92
2023-04-06T03:36:23.771Z,91
2023-04-06T03:37:30.624Z,91
2023-04-06T03:38:39.590Z,91
2023-04-06T03:39:44.859Z,91
2023-04-06T03:40:52.204Z,91
2023-04-06T03:41:58.520Z,91
2023-04-06T03:43:05.850Z,91
2023-04-06T03:44:12.858Z,91
2023-04-06T03:45:19.982Z,91
2023-04-06T03:46:26.550Z,91
2023-04-06T03:47:33.755Z,91
2023-04-06T03:48:40.632Z,91
2023-04-06T03:49:47.804Z,91
2023-04-06T03:50:54.996Z,91
2023-04-06T03:52:01.992Z,91
2023-04-06T03:53:08.537Z,91
2023-04-06T03:54:15.704Z,91
2023-04-06T03:55:22.875Z,91
2023-04-06T03:56:29.989Z,91
2023-04-06T03:57:36.458Z,91
2023-04-06T03:58:43.558Z,91
2023-04-06T03:59:50.768Z,91
2023-04-06T04:00:57.833Z,91
2023-04-06T04:02:05.050Z,91
2023-04-06T04:03:12.143Z,90
2023-04-06T04:04:18.783Z,90
2023-04-06T04:05:25.863Z,91
2023-04-06T04:06:32.903Z,91
2023-04-06T04:07:40.031Z,91
2023-04-06T04:09:53.802Z,91
2023-04-06T04:11:00.755Z,91
2023-04-06T04:12:07.772Z,91
2023-04-06T04:13:15.040Z,91
2023-04-06T04:14:21.638Z,91
2023-04-06T04:15:28.554Z,91
2023-04-06T04:16:35.786Z,91
2023-04-06T04:17:44.226Z,91
2023-04-06T04:18:50.006Z,91
2023-04-06T04:19:56.579Z,91
2023-04-06T04:22:10.782Z,92
2023-04-06T04:23:17.925Z,91
2023-04-06T04:24:25.099Z,91
2023-04-06T04:25:31.640Z,91
2023-04-06T04:26:38.564Z,92
2023-04-06T04:27:46.644Z,91
2023-04-06T04:28:52.977Z,91
2023-04-06T04:30:00.135Z,91
2023-04-06T04:31:09.594Z,91
2023-04-06T04:32:13.716Z,91
2023-04-06T04:33:20.814Z,91
2023-04-06T04:34:28.032Z,92
2023-04-06T04:35:34.610Z,92
2023-04-06T04:36:41.548Z,92
2023-04-06T04:37:48.713Z,92
2023-04-06T04:38:55.852Z,92
2023-04-06T04:40:02.961Z,92
2023-04-06T04:41:10.069Z,92
2023-04-06T04:42:16.685Z,91
2023-04-06T04:43:23.854Z,92
2023-04-06T04:44:30.829Z,91
2023-04-06T04:45:37.834Z,92
2023-04-06T04:46:44.689Z,92
2023-04-06T04:47:51.758Z,91
2023-04-06T04:48:58.799Z,92
2023-04-06T04:50:05.864Z,92
2023-04-06T04:51:12.886Z,92
2023-04-06T04:52:19.933Z,92
2023-04-06T04:53:26.703Z,92
2023-04-06T04:54:33.988Z,92
2023-04-06T04:55:40.737Z,92
2023-04-06T04:56:48.025Z,92
2023-04-06T04:57:54.456Z,92
2023-04-06T04:59:01.794Z,92
2023-04-06T05:00:08.818Z,92
2023-04-06T05:01:15.993Z,92
2023-04-06T05:02:23.164Z,92
2023-04-06T05:03:30.067Z,92
2023-04-06T05:04:36.657Z,92
2023-04-06T05:05:43.735Z,92
2023-04-06T05:06:51.107Z,92
2023-04-06T05:07:57.846Z,92
2023-04-06T05:09:04.483Z,92
2023-04-06T05:10:13.498Z,92
2023-04-06T05:11:18.665Z,92
2023-04-06T05:13:33.113Z,92
2023-04-06T05:14:40.097Z,91
2023-04-06T05:15:46.768Z,91
2023-04-06T05:16:53.680Z,91
2023-04-06T05:18:01.237Z,91
2023-04-06T05:19:08.213Z,91
2023-04-06T05:20:14.623Z,91
2023-04-06T05:21:21.728Z,91
2023-04-06T05:22:28.683Z,91
2023-04-06T05:23:36.284Z,91
2023-04-06T05:24:43.163Z,91
2023-04-06T05:25:49.985Z,91
2023-04-06T05:26:56.620Z,91
2023-04-06T05:28:03.898Z,91
2023-04-06T05:29:11.219Z,91
2023-04-06T05:30:18.012Z,91
2023-04-06T05:31:25.056Z,91
2023-04-06T05:32:31.796Z,91
2023-04-06T05:33:38.729Z,91
2023-04-06T05:34:45.948Z,91
2023-04-06T05:35:53.204Z,91
2023-04-06T05:36:59.494Z,91
2023-04-06T05:38:06.747Z,91
2023-04-06T05:39:14.001Z,91
2023-04-06T05:40:20.913Z,91
2023-04-06T05:41:27.991Z,91
2023-04-06T05:42:34.599Z,91
2023-04-06T05:43:41.895Z,91
2023-04-06T05:44:48.845Z,91
2023-04-06T05:45:55.953Z,91
2023-04-06T05:47:03.222Z,91
2023-04-06T05:48:09.660Z,91
2023-04-06T05:50:23.899Z,91
2023-04-06T05:51:30.790Z,91
2023-04-06T05:52:38.168Z,91
2023-04-06T05:53:44.577Z,91
2023-04-06T05:54:51.655Z,91
2023-04-06T05:55:59.365Z,91
2023-04-06T05:57:05.806Z,91
2023-04-06T05:58:12.427Z,91
2023-04-06T05:59:19.765Z,90
2023-04-06T06:00:26.767Z,91
2023-04-06T06:01:33.973Z,91
2023-04-06T06:02:41.096Z,91
2023-04-06T06:03:47.974Z,91
2023-04-06T06:04:54.693Z,91
2023-04-06T06:06:01.733Z,91
2023-04-06T06:07:08.823Z,91
2023-04-06T06:08:16.167Z,91
2023-04-06T06:09:22.605Z,91
2023-04-06T06:10:32.850Z,91
2023-04-06T06:11:36.627Z,91
2023-04-06T06:12:43.915Z,91
2023-04-06T06:13:50.951Z,91
2023-04-06T06:14:57.928Z,91
2023-04-06T06:17:11.666Z,91
2023-04-06T06:18:18.877Z,91
2023-04-06T06:19:26.211Z,91
2023-04-06T06:20:32.582Z,91
2023-04-06T06:21:39.644Z,91
2023-04-06T06:22:46.669Z,91
2023-04-06T06:23:53.775Z,91
2023-04-06T06:25:00.884Z,91
2023-04-06T06:26:25.965Z,91
2023-04-06T06:27:14.737Z,91
2023-04-06T06:28:21.706Z,92
2023-04-06T06:29:28.985Z,91
2023-04-06T06:30:35.989Z,92
2023-04-06T06:31:42.519Z,92
2023-04-06T06:32:49.703Z,92
2023-04-06T06:33:56.999Z,92
2023-04-06T06:35:04.680Z,92
2023-04-06T06:36:10.921Z,92
2023-04-06T06:37:18.078Z,92
2023-04-06T06:38:24.732Z,92
2023-04-06T06:39:31.785Z,92
2023-04-06T06:40:38.777Z,92
2023-04-06T06:41:45.923Z,92
2023-04-06T06:42:52.590Z,92
2023-04-06T06:43:59.569Z,93
2023-04-06T06:45:06.774Z,92
2023-04-06T06:46:13.847Z,92
2023-04-06T06:47:20.931Z,92
2023-04-06T06:48:27.500Z,93
2023-04-06T06:49:34.635Z,93
2023-04-06T06:50:41.706Z,93
2023-04-06T06:51:48.883Z,93
2023-04-06T06:52:55.928Z,93
2023-04-06T06:54:02.525Z,93
2023-04-06T06:55:09.640Z,93
2023-04-06T06:56:16.761Z,93
2023-04-06T06:57:23.828Z,94
2023-04-06T06:58:30.990Z,94
2023-04-06T06:59:37.825Z,94
2023-04-06T07:00:44.681Z,94
2023-04-06T07:01:51.765Z,94
2023-04-06T07:02:58.867Z,94
2023-04-06T07:04:06.101Z,94
2023-04-06T07:05:24.294Z,95
2023-04-06T07:06:19.678Z,95
2023-04-06T07:07:26.737Z,95
2023-04-06T07:08:33.874Z,95
2023-04-06T07:09:40.966Z,95
2023-04-06T07:10:47.508Z,95
2023-04-06T07:11:54.660Z,95
2023-04-06T07:13:01.792Z,95
2023-04-06T07:14:09.291Z,95
2023-04-06T07:15:15.972Z,95
2023-04-06T07:16:22.624Z,95
2023-04-06T07:18:36.798Z,95
2023-04-06T07:20:50.472Z,95
2023-04-06T07:21:57.517Z,95
2023-04-06T07:23:04.660Z,95
2023-04-06T07:24:11.823Z,95
2023-04-06T07:25:18.848Z,95
2023-04-06T07:26:25.996Z,96
2023-04-06T07:27:32.568Z,96
2023-04-06T07:28:39.979Z,96
2023-04-06T07:29:46.843Z,95
2023-04-06T07:30:53.935Z,95
2023-04-06T07:32:00.507Z,95
2023-04-06T07:33:07.621Z,95
2023-04-06T07:34:14.770Z,94
2023-04-06T07:35:21.863Z,93
2023-04-06T07:36:28.888Z,93
2023-04-06T07:37:36.019Z,93
2023-04-06T07:38:43.133Z,93
2023-04-06T07:39:50.288Z,93
2023-04-06T07:40:56.846Z,93
2023-04-06T07:42:03.939Z,93
2023-04-06T07:43:10.523Z,93
2023-04-06T07:44:17.840Z,93
2023-04-06T07:45:24.725Z,94
2023-04-06T07:46:32.014Z,94
2023-04-06T07:47:39.120Z,94
2023-04-06T07:48:46.141Z,94
2023-04-06T07:49:52.592Z,95
2023-04-06T07:50:59.666Z,94
2023-04-06T07:52:06.842Z,95
2023-04-06T07:53:13.905Z,94
2023-04-06T07:54:21.625Z,95
2023-04-06T07:55:27.576Z,95
2023-04-06T07:56:34.703Z,95
2023-04-06T07:57:41.874Z,95
2023-04-06T07:58:49.160Z,95
2023-04-06T07:59:56.021Z,95
2023-04-06T08:01:02.654Z,95
2023-04-06T08:02:09.705Z,95
2023-04-06T08:03:16.914Z,95
2023-04-06T08:04:24.094Z,95
2023-04-06T08:05:30.544Z,96
2023-04-06T08:06:37.584Z,95
2023-04-06T08:07:44.777Z,95
2023-04-06T08:08:51.945Z,95
2023-04-06T08:09:59.002Z,95
2023-04-06T08:11:05.598Z,96
2023-04-06T08:12:12.689Z,95
2023-04-06T08:13:19.832Z,96
2023-04-06T08:14:26.882Z,96
2023-04-06T08:15:33.971Z,96
2023-04-06T08:16:40.504Z,96
2023-04-06T08:17:47.642Z,96
2023-04-06T08:18:54.856Z,96
2023-04-06T08:20:01.890Z,95
2023-04-06T08:21:09.974Z,96
2023-04-06T08:22:15.531Z,96
2023-04-06T08:24:29.710Z,96
2023-04-06T08:25:36.841Z,96
2023-04-06T08:26:43.441Z,96
2023-04-06T08:27:50.522Z,96
2023-04-06T08:28:57.660Z,96
2023-04-06T08:30:04.757Z,96
2023-04-06T08:31:11.921Z,96
2023-04-06T08:32:18.443Z,96
2023-04-06T08:33:25.550Z,96
2023-04-06T08:34:32.719Z,96
2023-04-06T08:35:39.738Z,95
2023-04-06T08:36:46.882Z,96
2023-04-06T08:37:53.448Z,96
2023-04-06T08:39:00.529Z,96
2023-04-06T08:40:07.623Z,96
2023-04-06T08:41:14.766Z,96
2023-04-06T08:42:22.401Z,96
2023-04-06T08:43:28.432Z,96
2023-04-06T08:44:35.577Z,96
2023-04-06T08:46:49.855Z,96
2023-04-06T08:47:56.924Z,96
2023-04-06T08:49:03.435Z,96
2023-04-06T08:50:10.535Z,96
2023-04-06T08:51:17.639Z,96
2023-04-06T08:52:24.779Z,96
2023-04-06T08:53:31.882Z,96
2023-04-06T08:54:39.005Z,95
2023-04-06T08:55:45.599Z,95
2023-04-06T08:56:52.698Z,95
2023-04-06T08:57:59.750Z,95
2023-04-06T08:59:06.990Z,95
2023-04-06T09:00:14.034Z,95
2023-04-06T09:01:20.608Z,95
2023-04-06T09:02:27.795Z,95
2023-04-06T09:03:35.016Z,94
2023-04-06T09:04:42.062Z,95
2023-04-06T09:05:48.516Z,94
2023-04-06T09:06:55.620Z,94
2023-04-06T09:08:02.733Z,94
2023-04-06T09:09:09.861Z,94
2023-04-06T09:10:16.981Z,94
2023-04-06T09:11:24.015Z,93
2023-04-06T09:12:30.615Z,94
2023-04-06T09:13:37.712Z,94
2023-04-06T09:14:44.889Z,94
2023-04-06T09:15:51.971Z,94
2023-04-06T09:16:58.512Z,94
2023-04-06T09:18:05.669Z,93
2023-04-06T09:19:12.762Z,94
2023-04-06T09:20:19.831Z,94
2023-04-06T09:21:27.223Z,94
2023-04-06T09:22:34.585Z,94
2023-04-06T09:23:40.728Z,94
2023-04-06T09:24:47.748Z,94
2023-04-06T09:25:54.832Z,93
2023-04-06T09:28:08.489Z,93
2023-04-06T09:29:15.666Z,94
2023-04-06T09:30:22.821Z,94
2023-04-06T09:31:29.820Z,94
2023-04-06T09:32:37.037Z,94
2023-04-06T09:33:44.077Z,94
2023-04-06T09:34:51.082Z,93
2023-04-06T09:35:57.847Z,94
2023-04-06T09:37:04.881Z,93
2023-04-06T09:38:11.989Z,93
2023-04-06T09:39:18.720Z,93
2023-04-06T09:40:25.662Z,93
2023-04-06T09:41:32.785Z,93
2023-04-06T09:42:39.822Z,93
2023-04-06T09:43:46.975Z,93
2023-04-06T09:44:53.585Z,92
2023-04-06T09:46:01.202Z,92
2023-04-06T09:47:07.798Z,92
2023-04-06T09:48:14.922Z,92
2023-04-06T09:49:22.026Z,92
2023-04-06T09:50:28.530Z,92
2023-04-06T09:51:36.203Z,92
2023-04-06T09:52:42.800Z,92
2023-04-06T09:53:49.874Z,92
2023-04-06T09:54:56.969Z,92
2023-04-06T09:56:03.601Z,92
2023-04-06T09:57:13.273Z,92
2023-04-06T09:58:17.840Z,92
2023-04-06T09:59:24.990Z,92
2023-04-06T10:00:32.052Z,92
2023-04-06T10:01:38.580Z,92
2023-04-06T10:02:45.799Z,92
2023-04-06T10:03:53.007Z,92
2023-04-06T10:04:59.884Z,92
2023-04-06T10:06:06.522Z,92
2023-04-06T10:07:13.601Z,91
2023-04-06T10:08:20.695Z,91
2023-04-06T10:09:27.818Z,91
2023-04-06T10:10:34.896Z,91
2023-04-06T10:11:42.042Z,91
2023-04-06T10:12:48.569Z,91
2023-04-06T10:15:02.822Z,91
2023-04-06T10:16:09.929Z,91
2023-04-06T10:17:17.052Z,91
2023-04-06T10:18:23.580Z,90
2023-04-06T10:19:30.827Z,90
2023-04-06T10:20:37.797Z,90
2023-04-06T10:21:44.899Z,90
2023-04-06T10:22:52.025Z,90
2023-04-06T10:23:58.601Z,90
2023-04-06T10:25:05.766Z,90
2023-04-06T10:26:12.809Z,90
2023-04-06T10:27:19.902Z,90
2023-04-06T10:28:26.527Z,89
2023-04-06T10:29:33.689Z,90
2023-04-06T10:31:47.834Z,89
2023-04-06T10:32:55.103Z,89
2023-04-06T10:34:02.070Z,89
2023-04-06T10:35:08.681Z,89
2023-04-06T10:36:15.840Z,89
2023-04-06T10:37:22.866Z,89
2023-04-06T10:38:29.944Z,89
2023-04-06T10:39:36.542Z,88
2023-04-06T10:40:43.657Z,88
2023-04-06T10:41:50.732Z,88
2023-04-06T10:42:57.870Z,88
2023-04-06T10:44:04.930Z,88
2023-04-06T10:45:12.126Z,88
2023-04-06T10:46:18.711Z,88
2023-04-06T10:47:25.852Z,88
2023-04-06T10:48:32.903Z,88
2023-04-06T10:49:40.044Z,88
2023-04-06T10:50:47.092Z,88
2023-04-06T10:51:53.771Z,88
2023-04-06T10:53:00.709Z,88
2023-04-06T10:54:07.863Z,88
2023-04-06T10:55:15.036Z,88
2023-04-06T10:56:22.061Z,88
2023-04-06T10:57:28.625Z,87
2023-04-06T10:58:36.332Z,87
2023-04-06T10:59:42.881Z,87
2023-04-06T11:00:51.208Z,87
2023-04-06T11:01:56.616Z,87
2023-04-06T11:03:03.724Z,87
2023-04-06T11:04:10.904Z,87
2023-04-06T11:05:17.938Z,87
2023-04-06T11:06:25.000Z,87
2023-04-06T11:07:31.549Z,87
2023-04-06T11:08:38.946Z,87
2023-04-06T11:09:56.079Z,86
2023-04-06T11:10:52.901Z,86
2023-04-06T11:11:59.984Z,86
2023-04-06T11:13:06.591Z,86
2023-04-06T11:14:13.705Z,86
2023-04-06T11:15:20.826Z,86
2023-04-06T11:16:27.895Z,86
2023-04-06T11:17:35.033Z,86
2023-04-06T11:18:41.589Z,86
2023-04-06T11:19:48.640Z,86
2023-04-06T11:23:09.717Z,86
2023-04-06T11:24:16.728Z,86
2023-04-06T11:25:23.799Z,86
2023-04-06T11:26:30.922Z,86
2023-04-06T11:27:38.056Z,86
2023-04-06T11:28:44.635Z,86
2023-04-06T11:29:52.047Z,85
2023-04-06T11:31:00.578Z,85
2023-04-06T11:32:05.995Z,85
2023-04-06T11:33:12.530Z,84
2023-04-06T11:35:26.747Z,84
2023-04-06T11:36:33.809Z,84
2023-04-06T11:37:40.917Z,84
2023-04-06T11:38:48.077Z,84
2023-04-06T11:39:54.700Z,84
2023-04-06T11:41:01.736Z,84
2023-04-06T11:43:15.966Z,84
2023-04-06T11:44:22.521Z,83
2023-04-06T11:45:29.726Z,83
2023-04-06T11:46:36.801Z,83
2023-04-06T11:47:45.402Z,83
2023-04-06T11:48:50.947Z,83
2023-04-06T11:49:58.136Z,83
2023-04-06T11:51:04.648Z,83
2023-04-06T11:52:13.914Z,83
2023-04-06T11:53:18.849Z,83
2023-04-06T11:55:33.447Z,83
2023-04-06T11:56:39.667Z,83
2023-04-06T11:57:46.775Z,82
2023-04-06T11:58:53.932Z,82
2023-04-06T12:00:01.011Z,82
2023-04-06T12:01:07.560Z,82
2023-04-06T12:02:14.729Z,82
2023-04-06T12:03:21.900Z,82
2023-04-06T12:04:28.937Z,82
2023-04-06T12:05:35.997Z,81
2023-04-06T12:06:42.546Z,81
2023-04-06T12:07:49.778Z,81
2023-04-06T12:08:56.867Z,81
2023-04-06T12:10:03.934Z,81
2023-04-06T12:11:11.011Z,81
2023-04-06T12:12:17.589Z,81
2023-04-06T12:13:24.718Z,81
2023-04-06T12:14:31.878Z,81
2023-04-06T12:15:38.871Z,81
2023-04-06T12:16:46.005Z,80
2023-04-06T12:17:52.605Z,80
2023-04-06T12:19:00.224Z,80
2023-04-06T12:20:18.010Z,80
2023-04-06T12:21:13.926Z,81
2023-04-06T12:22:20.452Z,81
2023-04-06T12:23:27.649Z,81
2023-04-06T12:24:34.707Z,80
2023-04-06T12:25:41.798Z,80
2023-04-06T12:26:51.702Z,80
2023-04-06T12:27:56.041Z,80
2023-04-06T12:29:02.656Z,80
2023-04-06T12:30:09.704Z,80
2023-04-06T12:31:16.855Z,80
2023-04-06T12:32:23.919Z,80
2023-04-06T12:33:30.595Z,80
2023-04-06T12:34:37.654Z,80
2023-04-06T12:35:44.825Z,80
2023-04-06T12:36:51.829Z,80
2023-04-06T12:37:58.933Z,79
2023-04-06T12:39:06.024Z,79
2023-04-06T12:40:12.593Z,79
2023-04-06T12:41:19.716Z,80
2023-04-06T12:42:26.864Z,80
2023-04-06T12:43:33.926Z,80
2023-04-06T12:44:40.531Z,80
2023-04-06T12:45:47.669Z,80
2023-04-06T12:46:54.921Z,80
2023-04-06T12:48:01.919Z,80
2023-04-06T12:49:08.941Z,80
2023-04-06T12:50:16.046Z,79
2023-04-06T12:51:22.588Z,79
2023-04-06T12:52:29.730Z,79
2023-04-06T12:53:36.847Z,78
2023-04-06T12:54:43.956Z,78
2023-04-06T12:55:50.536Z,78
2023-04-06T12:56:58.184Z,78
2023-04-06T12:58:04.750Z,78
2023-04-06T12:59:11.900Z,78
2023-04-06T13:00:19.045Z,78
2023-04-06T13:01:26.264Z,78
2023-04-06T13:02:32.696Z,78
2023-04-06T13:03:39.790Z,78
2023-04-06T13:04:46.906Z,78
2023-04-06T13:05:54.033Z,78
2023-04-06T13:07:00.529Z,78
2023-04-06T13:08:07.651Z,78
2023-04-06T13:09:14.757Z,77
2023-04-06T13:10:21.884Z,78
2023-04-06T13:11:29.051Z,78
2023-04-06T13:12:35.555Z,78
2023-04-06T13:13:42.643Z,78
2023-04-06T13:14:49.753Z,78
2023-04-06T13:15:56.912Z,78
2023-04-06T13:17:03.938Z,78
2023-04-06T13:18:10.609Z,78
2023-04-06T13:19:17.674Z,78
2023-04-06T13:20:24.775Z,77
2023-04-06T13:21:31.848Z,77
2023-04-06T13:22:38.979Z,77
2023-04-06T13:23:45.572Z,77
2023-04-06T13:24:52.639Z,77
2023-04-06T13:25:59.782Z,77
2023-04-06T13:27:06.906Z,77
2023-04-06T13:28:14.172Z,77
2023-04-06T13:29:20.568Z,77
2023-04-06T13:30:27.737Z,77
2023-04-06T13:31:34.815Z,77
2023-04-06T13:32:41.920Z,77
2023-04-06T13:33:48.505Z,77
2023-04-06T13:34:55.599Z,78
2023-04-06T13:36:02.660Z,78
2023-04-06T13:37:09.795Z,77
2023-04-06T13:38:16.910Z,77
2023-04-06T13:39:23.985Z,77
2023-04-06T13:40:30.596Z,77
2023-04-06T13:42:44.944Z,77
2023-04-06T13:43:51.891Z,77
2023-04-06T13:44:58.634Z,77
2023-04-06T13:46:05.651Z,77
2023-04-06T13:47:13.199Z,77
2023-04-06T13:48:19.864Z,77
2023-04-06T13:49:26.917Z,77
2023-04-06T13:50:34.001Z,77
2023-04-06T13:51:40.591Z,77
2023-04-06T13:52:47.722Z,77
2023-04-06T13:53:54.814Z,77
2023-04-06T13:55:01.968Z,77
2023-04-06T13:56:08.550Z,77
2023-04-06T13:57:15.606Z,77
2023-04-06T13:58:22.727Z,77
2023-04-06T13:59:30.921Z,77
2023-04-06T14:00:37.036Z,77
2023-04-06T14:01:44.064Z,77
2023-04-06T14:02:50.702Z,77
2023-04-06T14:03:57.855Z,76
2023-04-06T14:05:04.878Z,77
2023-04-06T14:07:18.521Z,76
2023-04-06T14:08:25.624Z,76
2023-04-06T14:09:32.776Z,76
2023-04-06T14:10:39.844Z,76
2023-04-06T14:11:46.963Z,76
2023-04-06T14:12:54.014Z,76
2023-04-06T14:14:00.594Z,76
2023-04-06T14:15:07.749Z,76
2023-04-06T14:16:14.855Z,76
2023-04-06T14:17:21.951Z,76
2023-04-06T14:18:28.524Z,76
2023-04-06T14:19:35.807Z,76
2023-04-06T14:20:42.722Z,76
2023-04-06T14:21:49.881Z,76
2023-04-06T14:22:56.987Z,76
2023-04-06T14:24:03.508Z,76
2023-04-06T14:25:10.600Z,76
2023-04-06T14:26:17.767Z,76
2023-04-06T14:27:24.848Z,76
2023-04-06T14:28:31.934Z,76
2023-04-06T14:29:39.272Z,76
2023-04-06T14:30:45.704Z,76
2023-04-06T14:31:52.749Z,76
2023-04-06T14:32:59.976Z,75
2023-04-06T14:34:06.977Z,75
2023-04-06T14:35:13.522Z,75
2023-04-06T14:36:20.665Z,75
2023-04-06T14:37:27.765Z,75
2023-04-06T14:39:41.996Z,75
2023-04-06T14:40:48.586Z,75
2023-04-06T14:41:55.668Z,75
2023-04-06T14:43:02.734Z,75
2023-04-06T14:44:09.944Z,75
2023-04-06T14:46:23.665Z,75
2023-04-06T14:47:30.716Z,75
2023-04-06T14:48:37.797Z,75
2023-04-06T14:49:44.889Z,75
2023-04-06T14:50:51.962Z,75
2023-04-06T14:51:58.579Z,75
2023-04-06T14:53:05.693Z,75
2023-04-06T14:54:12.776Z,75
2023-04-06T14:55:19.940Z,75
2023-04-06T14:56:26.572Z,75
2023-04-06T14:57:33.561Z,75
2023-04-06T14:58:40.656Z,75
2023-04-06T14:59:47.806Z,75
2023-04-06T15:00:54.915Z,75
2023-04-06T15:02:02.029Z,74
2023-04-06T15:03:08.875Z,75
2023-04-06T15:04:16.296Z,75
2023-04-06T15:05:22.825Z,75
2023-04-06T15:06:29.942Z,75
2023-04-06T15:07:36.495Z,75
2023-04-06T15:08:43.573Z,75
2023-04-06T15:09:50.690Z,75
2023-04-06T15:10:57.789Z,75
2023-04-06T15:12:04.908Z,75
2023-04-06T15:13:11.993Z,75
2023-04-06T15:14:18.587Z,75
2023-04-06T15:15:26.274Z,75
2023-04-06T15:16:32.883Z,75
2023-04-06T15:17:39.982Z,75
2023-04-06T15:18:46.514Z,75
2023-04-06T15:19:53.590Z,75
2023-04-06T15:21:00.689Z,75
2023-04-06T15:22:07.832Z,75
2023-04-06T15:23:14.932Z,75
2023-04-06T15:24:22.025Z,75
2023-04-06T15:25:28.629Z,75
2023-04-06T15:26:35.726Z,75
2023-04-06T15:27:42.795Z,75
2023-04-06T15:28:49.929Z,74
2023-04-06T15:29:56.571Z,75
2023-04-06T15:31:03.647Z,74
2023-04-06T15:32:13.438Z,75
2023-04-06T15:33:17.810Z,75
2023-04-06T15:34:24.942Z,75
2023-04-06T15:35:31.538Z,75
2023-04-06T15:36:38.657Z,75
2023-04-06T15:37:45.731Z,75
2023-04-06T15:38:52.824Z,75
2023-04-06T15:40:01.406Z,75
2023-04-06T15:41:06.560Z,75
2023-04-06T15:42:13.627Z,74
2023-04-06T15:43:20.732Z,74
2023-04-06T15:44:27.964Z,74
2023-04-06T15:45:34.970Z,75
2023-04-06T15:46:41.522Z,75
2023-04-06T15:47:48.645Z,75
2023-04-06T15:48:55.754Z,75
2023-04-06T15:50:03.018Z,74
2023-04-06T15:51:09.968Z,74
2023-04-06T15:52:16.534Z,74
2023-04-06T15:53:23.645Z,74
2023-04-06T15:54:30.735Z,74
2023-04-06T15:55:37.873Z,75
2023-04-06T15:56:44.468Z,75
2023-04-06T15:57:51.536Z,75
2023-04-06T15:58:58.635Z,75
2023-04-06T16:00:05.785Z,75
2023-04-06T16:01:12.857Z,75
2023-04-06T16:02:20.056Z,74
2023-04-06T16:03:26.805Z,74
2023-04-06T16:04:33.832Z,74
2023-04-06T16:05:48.946Z,75
2023-04-06T16:07:55.001Z,75
2023-04-06T16:09:01.581Z,75
2023-04-06T16:10:08.736Z,75
2023-04-06T16:11:15.793Z,75
2023-04-06T16:12:22.862Z,75
2023-04-06T16:13:29.999Z,75
2023-04-06T16:14:36.584Z,75
2023-04-06T16:15:43.708Z,75
2023-04-06T16:16:51.088Z,75
2023-04-06T16:17:57.944Z,74
2023-04-06T16:19:04.457Z,74
2023-04-06T16:20:11.554Z,74
2023-04-06T16:21:18.775Z,74
2023-04-06T16:22:25.804Z,74
2023-04-06T16:23:32.887Z,74
2023-04-06T16:24:40.020Z,74
2023-04-06T16:25:46.644Z,74
2023-04-06T16:26:53.694Z,74